PWSweather.com
Personal Weather Stations
Station Observations
WISCHPK61
Green Bay Schmitt Park, Green Bay, WI 54311

Green Bay Schmitt ParkGreen Bay, WI 54311

Lat: 44.514277, Lon: -87.935067

Elevation: 735

Station Type: Acu Rite Pro Weather Center model 02032C

http://greenbayweathercam.com

High Low Average
Temperature 9.4°F-12.6°C -15.7°F-26.5°C -3.8°F-19.9°C
Dew Point 9.1°F-12.7°C -21.9°F-29.9°C -6.4°F-21.3°C
Winds Calm Calm Calm Calm Calm SWCalm SW
Wind Gusts -- -- --
Humidity 99% 54% 90%
Pressure 29.47 in998.0 mb 29.21 in989.2 mb -
Precipitation 0.00 in0.0 mm - -
Hour Temp Dew Point Humidity Winds Wind Gusts Pressure Precip Precip Rate Daily Precip Total
12:00 AM -10.8°F-23.8°C -19.6°F-28.7°C 64% Calm Calm -- 29.46 in997.6 mb - 0.00 in0.0 mm 0.00 in0.0 mm
01:00 AM -9.8°F-23.2°C -10.0°F-23.3°C 99% Calm Calm -- 29.47 in998.0 mb - 0.00 in0.0 mm 0.00 in0.0 mm
02:00 AM -12.1°F-24.5°C -17.5°F-27.5°C 76% Calm Calm -- 29.46 in997.6 mb - 0.00 in0.0 mm 0.00 in0.0 mm
03:00 AM -12.1°F-24.5°C -12.3°F-24.6°C 99% Calm Calm -- 29.46 in997.6 mb - 0.00 in0.0 mm 0.00 in0.0 mm
04:00 AM -12.8°F-24.9°C -13.0°F-25.0°C 99% Calm Calm -- 29.46 in997.6 mb - 0.00 in0.0 mm 0.00 in0.0 mm
05:00 AM -14.1°F-25.6°C -14.3°F-25.7°C 99% Calm Calm -- 29.45 in997.3 mb - 0.00 in0.0 mm 0.00 in0.0 mm
06:00 AM -15.0°F-26.1°C -21.9°F-29.9°C 70% Calm Calm -- 29.43 in996.6 mb - 0.00 in0.0 mm 0.00 in0.0 mm
07:00 AM -15.7°F-26.5°C -21.0°F-29.4°C 76% Calm Calm -- 29.42 in996.3 mb - 0.00 in0.0 mm 0.00 in0.0 mm
08:00 AM -14.8°F-26.0°C -16.4°F-26.9°C 92% Calm Calm -- 29.40 in995.6 mb - 0.00 in0.0 mm 0.00 in0.0 mm
09:00 AM -12.5°F-24.7°C -12.7°F-24.8°C 99% Calm Calm -- 29.41 in995.9 mb - 0.00 in0.0 mm 0.00 in0.0 mm
10:00 AM -9.0°F-22.8°C -9.2°F-22.9°C 99% Calm Calm -- 29.42 in996.3 mb - 0.00 in0.0 mm 0.00 in0.0 mm
11:00 AM -2.4°F-19.1°C -2.7°F-19.3°C 99% Calm Calm -- 29.41 in995.9 mb - 0.00 in0.0 mm 0.00 in0.0 mm
12:00 PM 2.0°F-16.7°C 1.7°F-16.8°C 99% Calm Calm -- 29.40 in995.6 mb - 0.00 in0.0 mm 0.00 in0.0 mm
01:00 PM 7.6°F-13.6°C 7.4°F-13.7°C 99% Calm Calm -- 29.34 in993.6 mb - 0.00 in0.0 mm 0.00 in0.0 mm
02:00 PM 9.4°F-12.6°C 9.1°F-12.7°C 99% Calm Calm -- 29.30 in992.2 mb - 0.00 in0.0 mm 0.00 in0.0 mm
03:00 PM 5.5°F-14.7°C -7.6°F-22.0°C 54% Calm Calm -- 29.27 in991.2 mb - 0.00 in0.0 mm 0.00 in0.0 mm
04:00 PM 5.5°F-14.7°C 5.3°F-14.8°C 99% Calm Calm -- 29.24 in990.2 mb - 0.00 in0.0 mm 0.00 in0.0 mm
05:00 PM 2.8°F-16.2°C -9.0°F-22.8°C 57% Calm Calm -- 29.24 in990.2 mb - 0.00 in0.0 mm 0.00 in0.0 mm
06:00 PM 1.4°F-17.0°C -8.6°F-22.6°C 62% Calm Calm -- 29.22 in989.5 mb - 0.00 in0.0 mm 0.00 in0.0 mm
07:00 PM 0.7°F-17.4°C 0.5°F-17.5°C 99% Calm Calm -- 29.22 in989.5 mb - 0.00 in0.0 mm 0.00 in0.0 mm
08:00 PM 0.7°F-17.4°C 0.5°F-17.5°C 99% Calm Calm -- 29.23 in989.8 mb - 0.00 in0.0 mm 0.00 in0.0 mm
09:00 PM 1.4°F-17.0°C -3.6°F-19.8°C 79% Calm Calm -- 29.23 in989.8 mb - 0.00 in0.0 mm 0.00 in0.0 mm
10:00 PM 1.6°F-16.9°C 1.4°F-17.0°C 99% Calm Calm -- 29.23 in989.8 mb - 0.00 in0.0 mm 0.00 in0.0 mm
11:00 PM 0.7°F-17.4°C 0.5°F-17.5°C 99% Calm Calm -- 29.22 in989.5 mb - 0.00 in0.0 mm 0.00 in0.0 mm